createdAt,value
2019-01-16T00:00:18.925Z,9.53
2019-01-16T00:01:41.799Z,9.75
2019-01-16T00:02:46.708Z,9.80
2019-01-16T00:03:57.595Z,10.43
2019-01-16T00:05:05.226Z,10.70
2019-01-16T00:06:16.107Z,9.90
2019-01-16T00:07:32.836Z,10.23
2019-01-16T00:08:46.495Z,10.03
2019-01-16T00:10:00.597Z,10.50
2019-01-16T00:11:20.292Z,10.65
2019-01-16T00:12:37.506Z,11.88
2019-01-16T00:13:42.517Z,12.88
2019-01-16T00:14:50.174Z,20.08
2019-01-16T00:15:55.089Z,13.95
2019-01-16T00:17:06.276Z,12.55
2019-01-16T00:18:17.284Z,13.18
2019-01-16T00:19:20.625Z,12.65
2019-01-16T00:20:31.533Z,12.73
2019-01-16T00:21:42.088Z,12.03
2019-01-16T00:22:47.012Z,11.50
2019-01-16T00:23:57.941Z,11.53
2019-01-16T00:25:08.604Z,11.35
2019-01-16T00:26:25.728Z,13.65
2019-01-16T00:27:45.341Z,11.40
2019-01-16T00:28:50.264Z,11.10
2019-01-16T00:30:01.094Z,12.20
2019-01-16T00:31:21.094Z,12.13
2019-01-16T00:32:38.057Z,11.18
2019-01-16T00:33:48.455Z,13.45
2019-01-16T00:34:56.400Z,15.60
2019-01-16T00:36:10.000Z,17.98
2019-01-16T00:37:17.452Z,17.70
2019-01-16T00:38:27.864Z,17.90
2019-01-16T00:39:50.939Z,17.10
2019-01-16T00:41:04.773Z,16.62
2019-01-16T00:42:15.660Z,16.65
2019-01-16T00:43:23.267Z,15.75
2019-01-16T00:44:44.287Z,15.38
2019-01-16T00:45:54.907Z,16.87
2019-01-16T00:46:59.816Z,15.72
2019-01-16T00:48:04.816Z,14.05
2019-01-16T00:49:15.530Z,14.05
2019-01-16T00:50:23.147Z,15.55
2019-01-16T00:51:30.542Z,15.38
2019-01-16T00:52:35.464Z,15.50
2019-01-16T00:53:40.386Z,15.28
2019-01-16T00:54:50.838Z,15.20
2019-01-16T00:56:01.768Z,14.95
2019-01-16T00:57:18.573Z,13.70
2019-01-16T00:58:26.480Z,12.85
2019-01-16T00:59:43.476Z,13.22
2019-01-16T01:01:01.537Z,12.37
2019-01-16T01:02:06.549Z,13.60
2019-01-16T01:03:11.469Z,12.65
2019-01-16T01:04:32.694Z,14.83
2019-01-16T01:05:37.630Z,13.72
2019-01-16T01:06:59.002Z,14.00
2019-01-16T01:08:15.617Z,14.25
2019-01-16T01:09:23.442Z,17.57
2019-01-16T01:10:28.377Z,15.85
2019-01-16T01:11:51.412Z,14.65
2019-01-16T01:13:14.200Z,14.73
2019-01-16T01:14:19.129Z,14.68
2019-01-16T01:15:29.527Z,14.75
2019-01-16T01:16:37.370Z,14.87
2019-01-16T01:17:42.302Z,16.05
2019-01-16T01:18:55.820Z,16.40
2019-01-16T01:20:00.747Z,16.15
2019-01-16T01:21:21.601Z,17.60
2019-01-16T01:22:26.545Z,15.68
2019-01-16T01:23:31.465Z,17.55
2019-01-16T01:24:52.780Z,18.40
2019-01-16T01:25:57.718Z,18.92
2019-01-16T01:27:18.921Z,18.12
2019-01-16T01:28:32.533Z,18.02
2019-01-16T01:29:42.959Z,17.62
2019-01-16T01:30:50.331Z,18.77
2019-01-16T01:31:58.021Z,17.48
2019-01-16T01:33:03.309Z,16.90
2019-01-16T01:34:08.605Z,16.90
2019-01-16T01:35:13.533Z,16.95
2019-01-16T01:36:18.499Z,18.40
2019-01-16T01:37:32.434Z,17.32
2019-01-16T01:38:49.552Z,17.57
2019-01-16T01:39:57.195Z,16.27
2019-01-16T01:41:10.807Z,17.27
2019-01-16T01:42:27.870Z,18.15
2019-01-16T01:43:38.820Z,17.48
2019-01-16T01:44:59.722Z,17.92
2019-01-16T01:46:13.564Z,18.60
2019-01-16T01:47:18.827Z,18.67
2019-01-16T01:48:23.777Z,19.85
2019-01-16T01:49:34.375Z,20.12
2019-01-16T01:50:42.536Z,14.73
2019-01-16T01:51:47.462Z,15.35
2019-01-16T01:53:01.341Z,13.58
2019-01-16T01:54:12.238Z,13.08
2019-01-16T01:55:17.166Z,11.12
2019-01-16T01:56:22.105Z,10.88
2019-01-16T01:57:29.833Z,11.20
2019-01-16T01:58:40.639Z,12.15
2019-01-16T01:59:45.604Z,12.82
2019-01-16T02:00:56.085Z,14.13
2019-01-16T02:02:03.841Z,13.00
2019-01-16T02:03:11.586Z,12.93
2019-01-16T02:04:16.506Z,12.50
2019-01-16T02:05:21.493Z,13.22
2019-01-16T02:06:35.539Z,13.03
2019-01-16T02:07:56.750Z,12.20
2019-01-16T02:09:10.395Z,11.90
2019-01-16T02:10:33.467Z,10.93
2019-01-16T02:11:43.875Z,10.82
2019-01-16T02:13:01.190Z,8.98
2019-01-16T02:14:06.727Z,10.70
2019-01-16T02:15:13.394Z,11.48
2019-01-16T02:16:18.353Z,10.78
2019-01-16T02:17:26.151Z,11.83
2019-01-16T02:18:31.064Z,12.30
2019-01-16T02:19:36.348Z,13.00
2019-01-16T02:20:41.283Z,13.28
2019-01-16T02:22:02.360Z,12.68
2019-01-16T02:23:07.280Z,13.95
2019-01-16T02:24:28.754Z,13.15
2019-01-16T02:25:36.695Z,13.48
2019-01-16T02:26:47.306Z,13.03
2019-01-16T02:27:52.268Z,13.13
2019-01-16T02:29:12.515Z,12.85
2019-01-16T02:30:17.790Z,13.88
2019-01-16T02:31:22.714Z,13.50
2019-01-16T02:32:44.035Z,13.90
2019-01-16T02:34:01.228Z,13.98
2019-01-16T02:35:21.430Z,13.58
2019-01-16T02:36:32.112Z,14.13
2019-01-16T02:37:37.327Z,13.48
2019-01-16T02:38:44.953Z,13.18
2019-01-16T02:39:49.934Z,14.58
2019-01-16T02:41:13.028Z,14.03
2019-01-16T02:42:20.418Z,12.25
2019-01-16T02:43:31.260Z,11.57
2019-01-16T02:44:46.109Z,11.05
2019-01-16T02:45:56.941Z,10.38
2019-01-16T02:47:02.272Z,11.28
2019-01-16T02:48:07.200Z,11.20
2019-01-16T02:49:28.127Z,12.43
2019-01-16T02:50:33.059Z,12.37
2019-01-16T02:51:40.494Z,11.20
2019-01-16T02:52:47.989Z,11.78
2019-01-16T02:54:01.871Z,11.95
2019-01-16T02:55:13.795Z,12.73
2019-01-16T02:56:21.640Z,12.88
2019-01-16T02:57:26.606Z,17.10
2019-01-16T02:58:31.543Z,16.05
2019-01-16T02:59:42.413Z,15.85
2019-01-16T03:01:05.287Z,15.30
2019-01-16T03:02:22.282Z,15.65
2019-01-16T03:03:29.879Z,15.58
2019-01-16T03:04:34.881Z,16.55
2019-01-16T03:05:39.797Z,16.82
2019-01-16T03:06:56.596Z,15.75
2019-01-16T03:08:04.289Z,15.08
2019-01-16T03:09:12.510Z,14.87
2019-01-16T03:10:26.535Z,14.50
2019-01-16T03:11:40.795Z,14.07
2019-01-16T03:12:45.741Z,12.85
2019-01-16T03:13:59.326Z,13.15
2019-01-16T03:15:13.301Z,12.00
2019-01-16T03:16:21.214Z,12.65
2019-01-16T03:17:28.629Z,12.73
2019-01-16T03:18:39.286Z,11.83
2019-01-16T03:20:02.425Z,11.15
2019-01-16T03:21:07.391Z,10.48
2019-01-16T03:22:12.313Z,10.68
2019-01-16T03:23:23.225Z,10.05
2019-01-16T03:24:28.160Z,9.03
2019-01-16T03:25:33.085Z,9.23
2019-01-16T03:26:38.050Z,9.35
2019-01-16T03:27:55.075Z,10.45
2019-01-16T03:29:12.276Z,11.57
2019-01-16T03:30:32.209Z,12.68
2019-01-16T03:31:43.105Z,11.73
2019-01-16T03:32:59.677Z,11.93
2019-01-16T03:34:13.709Z,11.12
2019-01-16T03:35:34.995Z,11.50
2019-01-16T03:36:42.735Z,11.33
2019-01-16T03:37:59.486Z,12.47
2019-01-16T03:39:04.472Z,14.23
2019-01-16T03:40:11.995Z,12.63
2019-01-16T03:41:29.064Z,13.62
2019-01-16T03:42:33.999Z,12.33
2019-01-16T03:43:38.939Z,12.93
2019-01-16T03:44:44.353Z,11.33
2019-01-16T03:46:07.344Z,11.57
2019-01-16T03:47:15.573Z,12.95
2019-01-16T03:48:20.491Z,11.73
2019-01-16T03:49:25.412Z,12.37
2019-01-16T03:50:42.044Z,11.83
2019-01-16T03:51:47.023Z,12.20
2019-01-16T03:52:51.948Z,12.35
2019-01-16T03:54:13.234Z,11.50
2019-01-16T03:55:20.850Z,12.53
2019-01-16T03:56:41.922Z,13.40
2019-01-16T03:57:49.792Z,14.33
2019-01-16T03:59:10.900Z,15.45
2019-01-16T04:00:21.661Z,16.95
2019-01-16T04:01:35.277Z,16.07
2019-01-16T04:02:40.288Z,15.70
2019-01-16T04:03:53.923Z,17.70
2019-01-16T04:05:01.792Z,16.00
2019-01-16T04:06:15.744Z,14.13
2019-01-16T04:07:20.668Z,14.13
2019-01-16T04:08:28.508Z,18.00
2019-01-16T04:09:48.668Z,19.73
2019-01-16T04:10:56.351Z,23.75
2019-01-16T04:12:01.281Z,24.40
2019-01-16T04:13:06.242Z,21.35
2019-01-16T04:14:27.492Z,23.32
2019-01-16T04:15:32.453Z,21.85
2019-01-16T04:16:39.848Z,21.15
2019-01-16T04:18:01.161Z,19.67
2019-01-16T04:19:21.838Z,20.25
2019-01-16T04:20:26.995Z,20.95
2019-01-16T04:21:43.923Z,21.62
2019-01-16T04:22:54.814Z,20.82
2019-01-16T04:24:05.991Z,19.62
2019-01-16T04:25:13.506Z,20.30
2019-01-16T04:26:27.154Z,21.35
2019-01-16T04:27:44.183Z,21.50
2019-01-16T04:29:01.025Z,22.98
2019-01-16T04:30:08.803Z,20.72
2019-01-16T04:31:13.723Z,18.30
2019-01-16T04:32:18.655Z,20.27
2019-01-16T04:33:23.586Z,19.52
2019-01-16T04:34:45.090Z,19.10
2019-01-16T04:35:50.018Z,21.30
2019-01-16T04:37:00.888Z,19.23
2019-01-16T04:38:14.565Z,20.60
2019-01-16T04:39:28.470Z,19.87
2019-01-16T04:40:33.432Z,20.25
2019-01-16T04:41:50.435Z,19.75
2019-01-16T04:42:58.288Z,19.60
2019-01-16T04:44:06.002Z,20.50
2019-01-16T04:45:16.670Z,19.37
2019-01-16T04:46:37.760Z,19.98
2019-01-16T04:47:42.683Z,23.05
2019-01-16T04:48:53.453Z,22.52
2019-01-16T04:50:16.256Z,21.85
2019-01-16T04:51:24.062Z,20.40
2019-01-16T04:52:31.807Z,22.82
2019-01-16T04:53:36.744Z,21.05
2019-01-16T04:54:47.407Z,21.15
2019-01-16T04:55:52.691Z,32.13
2019-01-16T04:57:06.738Z,25.32
2019-01-16T04:58:14.413Z,26.00
2019-01-16T04:59:35.281Z,23.35
2019-01-16T05:00:49.050Z,22.07
2019-01-16T05:02:12.044Z,21.75
2019-01-16T05:03:31.787Z,22.05
2019-01-16T05:04:48.768Z,21.87
2019-01-16T05:05:53.706Z,24.55
2019-01-16T05:06:58.648Z,28.92
2019-01-16T05:08:12.321Z,28.95
2019-01-16T05:09:26.643Z,36.68
2019-01-16T05:10:43.923Z,52.78
2019-01-16T05:11:54.766Z,64.85
2019-01-16T05:13:02.789Z,61.28
2019-01-16T05:14:13.244Z,38.05
2019-01-16T05:15:23.956Z,29.80
2019-01-16T05:16:34.573Z,26.62
2019-01-16T05:17:42.420Z,28.87
2019-01-16T05:19:03.392Z,27.35
2019-01-16T05:20:10.068Z,24.57
2019-01-16T05:21:30.887Z,26.75
2019-01-16T05:22:38.758Z,27.87
2019-01-16T05:23:43.691Z,27.00
2019-01-16T05:24:51.101Z,26.10
2019-01-16T05:26:01.877Z,27.42
2019-01-16T05:27:15.758Z,27.25
2019-01-16T05:28:37.522Z,28.45
2019-01-16T05:30:00.564Z,28.32
2019-01-16T05:31:21.920Z,29.32
2019-01-16T05:32:44.939Z,28.95
2019-01-16T05:33:52.897Z,26.12
2019-01-16T05:34:57.861Z,26.35
2019-01-16T05:36:08.264Z,27.50
2019-01-16T05:37:15.934Z,26.05
2019-01-16T05:38:36.197Z,27.58
2019-01-16T05:39:57.382Z,27.85
2019-01-16T05:41:17.497Z,28.65
2019-01-16T05:42:34.427Z,25.37
2019-01-16T05:43:48.394Z,20.77
2019-01-16T05:44:53.413Z,21.35
2019-01-16T05:46:00.966Z,24.23
2019-01-16T05:47:17.985Z,26.07
2019-01-16T05:48:31.884Z,26.52
2019-01-16T05:49:46.644Z,26.87
2019-01-16T05:51:01.099Z,28.98
2019-01-16T05:52:21.898Z,27.77
2019-01-16T05:53:33.081Z,27.22
2019-01-16T05:54:54.593Z,32.67
2019-01-16T05:56:05.513Z,38.08
2019-01-16T05:57:26.480Z,49.45
2019-01-16T05:58:46.735Z,73.07
2019-01-16T05:59:51.663Z,75.85
2019-01-16T06:00:56.990Z,54.38
2019-01-16T06:02:10.642Z,46.37
2019-01-16T06:03:24.258Z,42.10
2019-01-16T06:04:29.197Z,37.35
2019-01-16T06:05:39.852Z,39.88
2019-01-16T06:07:01.357Z,38.75
2019-01-16T06:08:08.868Z,36.38
2019-01-16T06:09:25.791Z,36.63
2019-01-16T06:10:36.584Z,33.67
2019-01-16T06:11:56.592Z,35.20
2019-01-16T06:13:19.325Z,34.15
2019-01-16T06:14:26.874Z,34.67
2019-01-16T06:15:31.797Z,32.70
2019-01-16T06:16:52.645Z,32.67
2019-01-16T06:17:57.596Z,31.15
2019-01-16T06:19:08.022Z,32.30
2019-01-16T06:20:15.886Z,33.20
2019-01-16T06:21:36.902Z,32.08
2019-01-16T06:23:00.018Z,32.20
2019-01-16T06:24:04.935Z,31.37
2019-01-16T06:25:15.836Z,31.87
2019-01-16T06:26:26.539Z,30.85
2019-01-16T06:27:32.471Z,32.78
2019-01-16T06:28:53.835Z,31.50
2019-01-16T06:30:01.613Z,30.52
2019-01-16T06:31:06.580Z,31.95
2019-01-16T06:32:11.521Z,32.30
2019-01-16T06:33:16.449Z,35.75
2019-01-16T06:34:30.253Z,31.60
2019-01-16T06:35:40.816Z,34.67
2019-01-16T06:36:45.787Z,35.08
2019-01-16T06:37:56.419Z,35.63
2019-01-16T06:39:17.646Z,44.13
2019-01-16T06:40:28.358Z,61.70
2019-01-16T06:41:49.685Z,53.23
2019-01-16T06:42:54.653Z,46.53
2019-01-16T06:44:02.173Z,42.90
2019-01-16T06:45:14.059Z,41.45
2019-01-16T06:46:27.910Z,39.98
2019-01-16T06:47:36.001Z,39.53
2019-01-16T06:48:40.964Z,41.13
2019-01-16T06:49:51.847Z,40.75
2019-01-16T06:50:56.921Z,39.20
2019-01-16T06:52:01.864Z,34.35
2019-01-16T06:53:22.992Z,38.13
2019-01-16T06:54:44.135Z,34.35
2019-01-16T06:55:55.082Z,33.63
2019-01-16T06:57:05.855Z,42.73
2019-01-16T06:58:26.127Z,50.25
2019-01-16T06:59:42.981Z,41.90
2019-01-16T07:00:59.891Z,40.25
2019-01-16T07:02:19.759Z,35.78
2019-01-16T07:03:36.454Z,31.97
2019-01-16T07:04:41.386Z,31.55
2019-01-16T07:06:02.178Z,35.33
2019-01-16T07:07:25.352Z,41.95
2019-01-16T07:08:30.724Z,43.70
2019-01-16T07:09:53.558Z,39.88
2019-01-16T07:11:01.268Z,36.17
2019-01-16T07:12:22.114Z,38.08
2019-01-16T07:13:43.449Z,36.28
2019-01-16T07:14:48.386Z,43.45
2019-01-16T07:15:53.319Z,41.75
2019-01-16T07:17:10.055Z,40.48
2019-01-16T07:18:20.991Z,35.95
2019-01-16T07:19:44.227Z,38.28
2019-01-16T07:21:05.626Z,38.05
2019-01-16T07:22:25.784Z,48.20
2019-01-16T07:23:33.348Z,46.18
2019-01-16T07:24:38.347Z,42.35
2019-01-16T07:25:59.310Z,37.33
2019-01-16T07:27:20.567Z,36.08
2019-01-16T07:28:34.535Z,37.30
2019-01-16T07:29:51.497Z,34.73
2019-01-16T07:31:12.484Z,35.45
2019-01-16T07:32:23.717Z,41.55
2019-01-16T07:33:28.643Z,44.98
2019-01-16T07:34:36.298Z,44.42
2019-01-16T07:35:41.228Z,43.35
2019-01-16T07:36:46.288Z,45.65
2019-01-16T07:38:06.408Z,46.63
2019-01-16T07:39:14.038Z,50.08
2019-01-16T07:40:27.781Z,51.33
2019-01-16T07:41:38.318Z,50.45
2019-01-16T07:42:47.031Z,57.48
2019-01-16T07:43:50.027Z,51.00
2019-01-16T07:44:54.956Z,48.15
2019-01-16T07:46:02.635Z,47.03
2019-01-16T07:47:07.562Z,47.13
2019-01-16T07:48:15.365Z,46.40
2019-01-16T07:49:20.689Z,42.50
2019-01-16T07:50:31.084Z,47.65
2019-01-16T07:51:51.252Z,39.70
2019-01-16T07:53:07.822Z,41.63
2019-01-16T07:54:21.517Z,36.05
2019-01-16T07:55:38.180Z,35.33
2019-01-16T07:56:43.109Z,33.85
2019-01-16T07:57:48.359Z,36.38
2019-01-16T07:58:59.058Z,33.92
2019-01-16T08:00:18.907Z,33.75
2019-01-16T08:01:23.919Z,29.25
2019-01-16T08:02:35.078Z,28.60
2019-01-16T08:03:55.972Z,25.70
2019-01-16T08:05:10.318Z,24.67
2019-01-16T08:06:15.365Z,24.35
2019-01-16T08:07:23.257Z,27.55
2019-01-16T08:08:36.989Z,26.95
2019-01-16T08:09:44.525Z,28.07
2019-01-16T08:11:01.303Z,32.55
2019-01-16T08:12:12.332Z,50.85
2019-01-16T08:13:33.685Z,49.77
2019-01-16T08:14:44.631Z,41.53
2019-01-16T08:15:55.653Z,37.70
2019-01-16T08:17:00.653Z,43.83
2019-01-16T08:18:20.470Z,39.38
2019-01-16T08:19:31.491Z,39.48
2019-01-16T08:20:52.709Z,42.25
2019-01-16T08:21:57.631Z,37.53
2019-01-16T08:23:02.556Z,33.25
2019-01-16T08:24:13.344Z,32.33
2019-01-16T08:25:27.695Z,32.35
2019-01-16T08:26:48.775Z,31.80
2019-01-16T08:27:56.465Z,30.02
2019-01-16T08:29:04.216Z,31.23
2019-01-16T08:30:17.517Z,31.02
2019-01-16T08:31:22.934Z,33.67
2019-01-16T08:32:30.666Z,32.65
2019-01-16T08:33:38.202Z,32.88
2019-01-16T08:35:01.432Z,32.60
2019-01-16T08:36:25.067Z,34.65
2019-01-16T08:37:45.021Z,35.17
2019-01-16T08:38:58.932Z,33.88
2019-01-16T08:40:18.994Z,31.30
2019-01-16T08:41:23.991Z,38.98
2019-01-16T08:42:28.983Z,35.17
2019-01-16T08:43:42.556Z,35.90
2019-01-16T08:45:05.460Z,33.53
2019-01-16T08:46:13.025Z,29.65
2019-01-16T08:47:23.970Z,29.52
2019-01-16T08:48:34.620Z,30.55
2019-01-16T08:49:45.623Z,31.02
2019-01-16T08:51:06.981Z,28.17
2019-01-16T08:52:14.402Z,24.50
2019-01-16T08:53:35.690Z,21.27
2019-01-16T08:54:43.308Z,23.15
2019-01-16T08:56:04.453Z,24.00
2019-01-16T08:57:09.407Z,22.98
2019-01-16T08:58:20.329Z,25.43
2019-01-16T08:59:31.034Z,32.55
2019-01-16T09:00:36.012Z,32.00
2019-01-16T09:01:43.457Z,25.97
2019-01-16T09:02:51.373Z,24.98
2019-01-16T09:04:05.248Z,39.50
2019-01-16T09:05:18.198Z,32.80
2019-01-16T09:06:25.814Z,38.47
2019-01-16T09:07:36.435Z,37.45
2019-01-16T09:08:43.842Z,32.65
2019-01-16T09:09:54.453Z,27.33
2019-01-16T09:10:59.385Z,27.07
2019-01-16T09:12:13.204Z,30.97
2019-01-16T09:13:20.895Z,29.33
2019-01-16T09:14:28.541Z,25.73
2019-01-16T09:15:34.951Z,27.70
2019-01-16T09:16:46.252Z,26.70
2019-01-16T09:17:51.223Z,24.63
2019-01-16T09:19:12.334Z,26.53
2019-01-16T09:20:26.223Z,27.77
2019-01-16T09:21:31.169Z,25.07
2019-01-16T09:22:48.251Z,28.53
2019-01-16T09:23:53.582Z,25.33
2019-01-16T09:25:10.385Z,35.13
2019-01-16T09:26:20.951Z,23.20
2019-01-16T09:27:25.863Z,20.50
2019-01-16T09:28:42.407Z,19.30
2019-01-16T09:29:59.301Z,21.13
2019-01-16T09:31:07.188Z,27.40
2019-01-16T09:32:18.211Z,22.30
2019-01-16T09:33:39.570Z,19.93
2019-01-16T09:34:44.491Z,28.57
2019-01-16T09:35:55.137Z,27.50
2019-01-16T09:37:06.196Z,22.47
2019-01-16T09:38:23.049Z,22.17
2019-01-16T09:39:30.477Z,20.17
2019-01-16T09:40:35.399Z,21.20
2019-01-16T09:41:43.007Z,20.13
2019-01-16T09:42:53.683Z,18.10
2019-01-16T09:44:04.434Z,23.37
2019-01-16T09:45:26.758Z,22.10
2019-01-16T09:46:47.829Z,17.57
2019-01-16T09:47:52.750Z,19.57
2019-01-16T09:49:00.370Z,21.13
2019-01-16T09:50:06.675Z,20.77
2019-01-16T09:51:29.410Z,29.47
2019-01-16T09:52:34.400Z,25.07
2019-01-16T09:53:42.341Z,23.23
2019-01-16T09:55:05.624Z,23.13
2019-01-16T09:56:10.612Z,25.27
2019-01-16T09:57:28.317Z,26.47
2019-01-16T09:58:24.625Z,20.30
2019-01-16T09:59:38.082Z,19.03
2019-01-16T10:00:59.393Z,20.23
2019-01-16T10:02:04.759Z,26.07
2019-01-16T10:03:15.405Z,27.10
2019-01-16T10:04:20.453Z,26.07
2019-01-16T10:05:34.405Z,23.57
2019-01-16T10:06:51.193Z,18.37
2019-01-16T10:08:05.321Z,16.10
2019-01-16T10:09:16.388Z,15.57
2019-01-16T10:10:21.320Z,16.97
2019-01-16T10:11:29.131Z,16.07
2019-01-16T10:12:34.418Z,15.90
2019-01-16T10:13:55.608Z,17.63
2019-01-16T10:15:00.531Z,13.90
2019-01-16T10:16:05.470Z,14.77
2019-01-16T10:17:10.397Z,14.57
2019-01-16T10:18:15.329Z,15.50
2019-01-16T10:19:20.645Z,15.73
2019-01-16T10:20:25.573Z,15.43
2019-01-16T10:21:30.499Z,15.03
2019-01-16T10:22:41.449Z,16.77
2019-01-16T10:23:48.984Z,14.73
2019-01-16T10:24:59.698Z,15.20
2019-01-16T10:26:04.653Z,17.00
2019-01-16T10:27:15.201Z,18.37
2019-01-16T10:28:34.956Z,19.23
2019-01-16T10:29:43.671Z,20.13
2019-01-16T10:30:54.095Z,19.43
2019-01-16T10:32:17.051Z,19.60
2019-01-16T10:33:21.973Z,21.53
2019-01-16T10:34:26.921Z,20.77
2019-01-16T10:35:31.839Z,23.10
2019-01-16T10:36:36.820Z,23.60
2019-01-16T10:37:50.804Z,21.30
2019-01-16T10:39:04.666Z,21.20
2019-01-16T10:40:24.911Z,20.20
2019-01-16T10:41:30.206Z,19.43
2019-01-16T10:42:53.122Z,21.00
2019-01-16T10:44:16.302Z,34.07
2019-01-16T10:45:21.222Z,37.80
2019-01-16T10:46:41.410Z,35.97
2019-01-16T10:48:01.272Z,33.47
2019-01-16T10:49:06.285Z,30.33
2019-01-16T10:50:28.116Z,32.80
2019-01-16T10:51:38.956Z,32.90
2019-01-16T10:53:00.214Z,35.23
2019-01-16T10:54:07.996Z,30.87
2019-01-16T10:55:12.918Z,30.73
2019-01-16T10:56:17.904Z,32.17
2019-01-16T10:57:22.828Z,38.13
2019-01-16T10:58:27.749Z,42.17
2019-01-16T10:59:38.796Z,40.10
2019-01-16T11:00:52.347Z,37.23
2019-01-16T11:01:57.328Z,38.27
2019-01-16T11:03:04.825Z,33.00
2019-01-16T11:04:09.784Z,30.13
2019-01-16T11:05:14.760Z,28.17
2019-01-16T11:06:28.939Z,27.63
2019-01-16T11:07:33.882Z,26.63
2019-01-16T11:08:38.812Z,20.50
2019-01-16T11:09:49.885Z,16.83
2019-01-16T11:10:57.830Z,17.47
2019-01-16T11:12:03.194Z,16.63
2019-01-16T11:13:22.802Z,13.77
2019-01-16T11:14:36.729Z,14.17
2019-01-16T11:15:41.660Z,13.60
2019-01-16T11:16:56.691Z,12.50
2019-01-16T11:18:08.114Z,12.50
2019-01-16T11:19:29.228Z,14.50
2019-01-16T11:20:34.154Z,17.40
2019-01-16T11:21:39.085Z,16.43
2019-01-16T11:22:44.067Z,15.80
2019-01-16T11:24:05.538Z,15.07
2019-01-16T11:25:10.904Z,15.10
2019-01-16T11:26:31.898Z,16.60
2019-01-16T11:27:48.616Z,17.03
2019-01-16T11:29:09.483Z,16.17
2019-01-16T11:30:26.344Z,14.53
2019-01-16T11:31:31.365Z,13.07
2019-01-16T11:32:52.245Z,13.00
2019-01-16T11:34:00.629Z,12.27
2019-01-16T11:35:22.266Z,16.20
2019-01-16T11:36:43.361Z,14.27
2019-01-16T11:38:00.061Z,11.57
2019-01-16T11:39:23.330Z,12.87
2019-01-16T11:40:31.060Z,11.90
2019-01-16T11:41:41.697Z,14.57
2019-01-16T11:43:02.455Z,16.47
2019-01-16T11:44:23.678Z,16.47
2019-01-16T11:45:31.578Z,16.33
2019-01-16T11:46:48.451Z,19.80
2019-01-16T11:47:56.251Z,18.43
2019-01-16T11:49:19.353Z,14.60
2019-01-16T11:50:36.446Z,13.40
2019-01-16T11:51:47.547Z,15.40
2019-01-16T11:53:08.560Z,15.97
2019-01-16T11:54:28.448Z,15.37
2019-01-16T11:55:36.051Z,16.53
2019-01-16T11:56:40.992Z,16.43
2019-01-16T11:57:45.955Z,17.43
2019-01-16T11:58:59.720Z,21.73
2019-01-16T12:00:16.212Z,19.77
2019-01-16T12:01:37.547Z,16.27
2019-01-16T12:02:42.552Z,18.83
2019-01-16T12:04:03.948Z,16.30
2019-01-16T12:05:13.927Z,16.30
2019-01-16T12:06:34.978Z,16.10
2019-01-16T12:07:39.988Z,18.03
2019-01-16T12:09:00.014Z,15.10
2019-01-16T12:10:06.152Z,14.87
2019-01-16T12:11:14.006Z,15.43
2019-01-16T12:12:21.734Z,16.07
2019-01-16T12:13:29.504Z,17.43
2019-01-16T12:14:50.852Z,14.37
2019-01-16T12:16:13.817Z,15.87
2019-01-16T12:17:24.541Z,14.27
2019-01-16T12:18:32.437Z,12.87
2019-01-16T12:19:46.145Z,13.40
2019-01-16T12:20:53.806Z,13.83
2019-01-16T12:22:04.491Z,11.17
2019-01-16T12:23:12.252Z,11.77
2019-01-16T12:24:22.809Z,21.13
2019-01-16T12:25:33.579Z,21.30
2019-01-16T12:26:41.337Z,12.63
2019-01-16T12:27:55.370Z,11.57
2019-01-16T12:29:15.440Z,12.10
2019-01-16T12:30:38.406Z,11.90
2019-01-16T12:31:55.676Z,12.83
2019-01-16T12:33:06.630Z,13.27
2019-01-16T12:34:14.375Z,16.47
2019-01-16T12:35:24.718Z,18.43
2019-01-16T12:36:29.738Z,13.77
2019-01-16T12:37:40.235Z,12.23
2019-01-16T12:38:51.413Z,18.60
2019-01-16T12:39:59.254Z,14.70
2019-01-16T12:41:10.343Z,14.33
2019-01-16T12:42:21.002Z,15.70
2019-01-16T12:43:25.926Z,14.93
2019-01-16T12:44:33.833Z,15.70
2019-01-16T12:45:41.981Z,17.23
2019-01-16T12:47:02.829Z,23.13
2019-01-16T12:48:23.130Z,21.90
2019-01-16T12:49:40.427Z,18.43
2019-01-16T12:50:51.354Z,19.30
2019-01-16T12:51:56.374Z,23.47
2019-01-16T12:53:04.229Z,23.73
2019-01-16T12:54:12.159Z,21.40
2019-01-16T12:55:17.111Z,20.73
2019-01-16T12:56:22.070Z,20.67
2019-01-16T12:57:30.064Z,20.50
2019-01-16T12:58:44.041Z,18.57
2019-01-16T13:00:05.322Z,32.67
2019-01-16T13:01:10.297Z,22.20
2019-01-16T13:02:15.232Z,18.07
2019-01-16T13:03:36.513Z,16.50
2019-01-16T13:04:44.119Z,14.03
2019-01-16T13:05:59.208Z,15.60
2019-01-16T13:07:04.233Z,14.33
2019-01-16T13:08:09.541Z,13.53
2019-01-16T13:09:20.153Z,14.53
2019-01-16T13:10:43.126Z,13.73
2019-01-16T13:12:04.195Z,9.13
2019-01-16T13:13:09.108Z,11.73
2019-01-16T13:14:16.556Z,12.53
2019-01-16T13:15:21.481Z,12.93
2019-01-16T13:16:41.619Z,12.40
2019-01-16T13:18:04.416Z,13.27
2019-01-16T13:19:09.339Z,14.23
2019-01-16T13:20:23.263Z,15.60
2019-01-16T13:21:31.038Z,16.37
2019-01-16T13:22:35.985Z,17.00
2019-01-16T13:23:56.841Z,19.33
2019-01-16T13:25:07.630Z,19.70
2019-01-16T13:26:12.643Z,13.40
2019-01-16T13:27:17.587Z,9.40
2019-01-16T13:28:22.505Z,9.03
2019-01-16T13:29:43.736Z,9.03
2019-01-16T13:30:54.777Z,11.43
2019-01-16T13:31:59.747Z,14.47
2019-01-16T13:33:20.819Z,12.67
2019-01-16T13:34:25.816Z,9.10
2019-01-16T13:35:33.621Z,14.63
2019-01-16T13:36:50.436Z,9.00
2019-01-16T13:38:01.472Z,22.93
2019-01-16T13:39:25.364Z,20.27
2019-01-16T13:40:30.332Z,18.73
2019-01-16T13:41:37.862Z,17.97
2019-01-16T13:42:45.249Z,20.23
2019-01-16T13:44:05.354Z,21.07
2019-01-16T13:45:13.542Z,29.27
2019-01-16T13:46:18.470Z,22.80
2019-01-16T13:47:27.658Z,19.77
2019-01-16T13:48:52.754Z,18.10
2019-01-16T13:49:56.715Z,15.40
2019-01-16T13:51:03.220Z,15.33
2019-01-16T13:52:19.041Z,16.20
2019-01-16T13:53:37.764Z,20.07
2019-01-16T13:54:48.782Z,24.47
2019-01-16T13:55:53.750Z,19.47
2019-01-16T13:56:59.084Z,21.90
2019-01-16T13:58:06.747Z,20.67
2019-01-16T13:59:23.513Z,22.17
2019-01-16T14:00:34.208Z,16.07
2019-01-16T14:01:54.336Z,22.43
2019-01-16T14:03:10.268Z,22.43
2019-01-16T14:04:19.285Z,26.70
2019-01-16T14:05:27.009Z,28.17
2019-01-16T14:06:31.932Z,23.50
2019-01-16T14:07:39.516Z,23.83
2019-01-16T14:08:50.120Z,26.40
2019-01-16T14:10:13.920Z,29.53
2019-01-16T14:11:33.895Z,42.37
2019-01-16T14:12:50.830Z,40.57
2019-01-16T14:14:01.052Z,37.43
2019-01-16T14:15:15.059Z,33.10
2019-01-16T14:16:25.894Z,25.40
2019-01-16T14:17:44.434Z,21.97
2019-01-16T14:19:05.370Z,18.03
2019-01-16T14:20:13.568Z,24.97
2019-01-16T14:21:26.043Z,25.90
2019-01-16T14:22:33.970Z,27.77
2019-01-16T14:23:39.288Z,26.93
2019-01-16T14:24:47.467Z,23.57
2019-01-16T14:25:55.296Z,24.07
2019-01-16T14:27:12.313Z,28.50
2019-01-16T14:28:19.435Z,23.90
2019-01-16T14:29:30.307Z,23.03
2019-01-16T14:30:53.452Z,22.50
2019-01-16T14:32:01.073Z,22.90
2019-01-16T14:33:09.356Z,30.13
2019-01-16T14:34:14.232Z,30.77
2019-01-16T14:35:24.733Z,40.90
2019-01-16T14:36:38.525Z,35.00
2019-01-16T14:38:00.547Z,31.50
2019-01-16T14:39:25.622Z,28.37
2019-01-16T14:40:30.615Z,33.63
2019-01-16T14:41:50.756Z,35.93
2019-01-16T14:43:07.678Z,35.73
2019-01-16T14:44:12.607Z,38.73
2019-01-16T14:45:33.628Z,35.73
2019-01-16T14:46:38.549Z,36.67
2019-01-16T14:48:02.082Z,35.30
2019-01-16T14:49:07.838Z,35.67
2019-01-16T14:50:30.871Z,33.50
2019-01-16T14:51:37.430Z,32.90
2019-01-16T14:52:45.242Z,35.47
2019-01-16T14:53:56.301Z,34.90
2019-01-16T14:55:07.265Z,34.30
2019-01-16T14:56:12.189Z,33.47
2019-01-16T14:57:33.084Z,33.20
2019-01-16T14:58:53.230Z,32.83
2019-01-16T15:00:07.110Z,32.20
2019-01-16T15:01:18.274Z,34.93
2019-01-16T15:02:38.676Z,38.90
2019-01-16T15:03:43.602Z,55.47
2019-01-16T15:04:57.569Z,61.20
2019-01-16T15:06:04.999Z,55.27
2019-01-16T15:07:10.017Z,52.10
2019-01-16T15:08:15.029Z,48.27
2019-01-16T15:09:38.597Z,47.63
2019-01-16T15:10:43.584Z,43.83
2019-01-16T15:11:58.148Z,44.83
2019-01-16T15:13:08.629Z,49.80
2019-01-16T15:14:22.973Z,55.00
2019-01-16T15:15:43.885Z,54.42
2019-01-16T15:17:00.821Z,49.90
2019-01-16T15:18:08.769Z,52.20
2019-01-16T15:19:16.486Z,54.77
2019-01-16T15:20:21.423Z,53.05
2019-01-16T15:21:28.986Z,53.85
2019-01-16T15:22:37.250Z,50.17
2019-01-16T15:23:42.277Z,46.10